Time;durP1;ratioP1;P1;durP2;ratioP2;P2;SDS_P1;SDS_P2;PMS_P1;PMS_P2;Temp;Humidity;BMP_temperature;BMP_pressure;BME280_temperature;BME280_humidity;BME280_pressure;Samples;Min_cycle;Max_cycle;Signal;HPM_P1;HPM_P2
2022/11/15 00:00:28;;;;;;;32.67;20.95;;;8.10;99.90;;;;;;4900801;29;20052;-58
2022/11/15 00:02:54;;;;;;;31.90;20.27;;;8.10;99.90;;;;;;4900626;29;20052;-56
2022/11/15 00:05:20;;;;;;;28.00;20.08;;;8.10;99.90;;;;;;4889066;29;20056;-57
2022/11/15 00:07:46;;;;;;;28.83;20.27;;;8.10;99.90;;;;;;4903047;29;20124;-57
2022/11/15 00:10:12;;;;;;;27.92;20.60;;;8.10;99.90;;;;;;4902365;29;20090;-56
2022/11/15 00:12:37;;;;;;;29.95;19.63;;;8.10;99.90;;;;;;4902720;29;20078;-57
2022/11/15 00:15:04;;;;;;;30.63;21.00;;;8.10;99.90;;;;;;4898260;29;20051;-57
2022/11/15 00:17:30;;;;;;;26.73;18.60;;;8.10;99.90;;;;;;4902921;29;20047;-57
2022/11/15 00:19:55;;;;;;;31.38;20.42;;;8.00;99.90;;;;;;4900315;29;20123;-56
2022/11/15 00:22:22;;;;;;;30.52;20.23;;;7.90;99.90;;;;;;4906431;28;20132;-57
2022/11/15 00:24:47;;;;;;;28.67;20.45;;;7.90;99.90;;;;;;4890282;29;20055;-57
2022/11/15 00:27:13;;;;;;;29.88;20.15;;;7.90;99.90;;;;;;4901624;29;20051;-57
2022/11/15 00:29:43;;;;;;;31.23;20.30;;;7.80;99.90;;;;;;4902837;29;20594;-57
2022/11/15 00:32:11;;;;;;;29.33;19.10;;;7.70;99.90;;;;;;4907037;29;20051;-57
2022/11/15 00:34:37;;;;;;;29.33;19.08;;;7.70;99.90;;;;;;4902919;29;20055;-57
2022/11/15 00:37:03;;;;;;;30.38;19.88;;;7.70;99.90;;;;;;4903021;29;20487;-56
2022/11/15 00:39:29;;;;;;;27.50;19.73;;;7.70;99.90;;;;;;4901922;29;20063;-57
2022/11/15 00:41:54;;;;;;;29.33;19.50;;;7.70;99.90;;;;;;4902034;29;20040;-57
2022/11/15 00:44:20;;;;;;;28.85;20.02;;;7.60;99.90;;;;;;4882721;29;20092;-58
2022/11/15 00:46:46;;;;;;;30.00;20.45;;;7.60;99.90;;;;;;4900203;29;20044;-57
2022/11/15 00:49:12;;;;;;;28.77;20.02;;;7.60;99.90;;;;;;4902653;29;20122;-56
2022/11/15 00:51:37;;;;;;;30.13;20.55;;;7.60;99.90;;;;;;4901117;29;20138;-56
2022/11/15 00:54:03;;;;;;;29.95;20.75;;;7.60;99.90;;;;;;4902791;29;20055;-57
2022/11/15 00:56:29;;;;;;;28.92;20.88;;;7.70;99.90;;;;;;4904633;29;20062;-57
2022/11/15 00:58:55;;;;;;;29.67;20.02;;;7.70;99.90;;;;;;4904195;29;20506;-57
2022/11/15 01:01:21;;;;;;;28.38;19.45;;;7.70;99.90;;;;;;4904855;29;20097;-57
2022/11/15 01:03:46;;;;;;;30.42;20.30;;;7.70;99.90;;;;;;4902966;29;20051;-55
2022/11/15 01:06:12;;;;;;;28.60;20.25;;;7.70;99.90;;;;;;4902234;29;20082;-58
2022/11/15 01:08:40;;;;;;;26.92;19.40;;;7.70;99.90;;;;;;4904126;29;20052;-58
2022/11/15 01:11:08;;;;;;;32.42;20.77;;;7.70;99.90;;;;;;4904512;29;20059;-57
2022/11/15 01:13:35;;;;;;;28.95;19.83;;;7.70;99.90;;;;;;4890245;29;20056;-57
2022/11/15 01:16:13;;;;;;;28.60;20.35;;;7.80;99.90;;;;;;4903811;29;20052;-55
2022/11/15 01:18:40;;;;;;;28.55;19.88;;;7.80;99.90;;;;;;4904696;29;20130;-56
2022/11/15 01:21:11;;;;;;;30.33;20.55;;;7.80;99.90;;;;;;4905223;29;20060;-55
2022/11/15 01:23:36;;;;;;;29.15;19.48;;;7.70;99.90;;;;;;4905477;29;20060;-57
2022/11/15 01:26:04;;;;;;;28.17;19.52;;;7.70;99.90;;;;;;4892169;29;21139;-57
2022/11/15 01:28:32;;;;;;;27.52;19.50;;;7.70;99.90;;;;;;4904487;29;20052;-58
2022/11/15 01:31:02;;;;;;;26.95;19.15;;;7.70;99.90;;;;;;4904950;29;20044;-56
2022/11/15 01:33:28;;;;;;;26.52;18.63;;;7.70;99.90;;;;;;4903210;29;20463;-56
2022/11/15 01:35:55;;;;;;;27.75;19.50;;;7.70;99.90;;;;;;4904560;29;20055;-56
2022/11/15 01:38:22;;;;;;;26.85;18.65;;;7.70;99.90;;;;;;4904401;29;20059;-57
2022/11/15 01:40:48;;;;;;;27.52;19.33;;;7.60;99.90;;;;;;4905109;29;20495;-57
2022/11/15 01:43:34;;;;;;;30.13;20.50;;;7.70;99.90;;;;;;4886681;29;20652;-57
2022/11/15 01:46:15;;;;;;;30.10;21.10;;;7.70;99.90;;;;;;4903015;29;20069;-56
2022/11/15 01:48:41;;;;;;;32.80;21.88;;;7.60;99.90;;;;;;4901088;29;20052;-56
2022/11/15 01:51:11;;;;;;;30.95;21.33;;;7.60;99.90;;;;;;4903030;29;20686;-57
2022/11/15 01:53:40;;;;;;;31.48;22.30;;;7.60;99.90;;;;;;4902694;29;20162;-57
2022/11/15 01:56:10;;;;;;;32.30;22.58;;;7.60;99.90;;;;;;4898202;29;20491;-57
2022/11/15 01:58:36;;;;;;;32.60;22.38;;;7.60;99.90;;;;;;4905117;29;20051;-57
2022/11/15 02:01:02;;;;;;;32.78;23.08;;;7.60;99.90;;;;;;4901669;29;20051;-58
2022/11/15 02:03:56;;;;;;;33.80;22.10;;;7.60;99.90;;;;;;4903074;29;20059;-56
2022/11/15 02:06:22;;;;;;;35.17;22.77;;;7.60;99.90;;;;;;4892192;29;21779;-57
2022/11/15 02:08:49;;;;;;;33.67;22.80;;;7.60;99.90;;;;;;4903221;29;20056;-57
2022/11/15 02:11:15;;;;;;;32.83;22.88;;;7.60;99.90;;;;;;4904414;29;20396;-57
2022/11/15 02:13:41;;;;;;;33.63;22.40;;;7.50;99.90;;;;;;4902759;29;20082;-56
2022/11/15 02:16:49;;;;;;;38.40;22.38;;;7.50;99.90;;;;;;4901243;29;20127;-57
2022/11/15 02:19:32;;;;;;;32.30;20.73;;;7.50;99.90;;;;;;4902407;29;20063;-57
2022/11/15 02:22:25;;;;;;;34.95;21.15;;;7.50;99.90;;;;;;4904389;28;20691;-57
2022/11/15 02:25:09;;;;;;;32.00;21.63;;;7.50;99.90;;;;;;4924855;28;20290;-56
2022/11/15 02:27:42;;;;;;;30.88;20.85;;;7.50;99.90;;;;;;4907990;28;20051;-58
2022/11/15 02:30:34;;;;;;;30.13;19.58;;;7.50;99.90;;;;;;4919728;28;20085;-56
2022/11/15 02:33:28;;;;;;;30.67;20.83;;;7.50;99.90;;;;;;4921234;28;20760;-57
2022/11/15 02:36:25;;;;;;;31.42;20.52;;;7.50;99.90;;;;;;4923171;28;20055;-57
2022/11/15 02:39:28;;;;;;;27.15;19.75;;;7.50;99.90;;;;;;4919496;28;20056;-57
2022/11/15 02:42:01;;;;;;;34.10;21.13;;;7.50;99.90;;;;;;4920910;28;20526;-57
2022/11/15 02:44:33;;;;;;;;;;;7.50;99.90;;;;;;4904559;28;20048;-57
2022/11/15 02:47:14;;;;;;;31.75;20.75;;;7.50;99.90;;;;;;4920362;28;19923;-57
2022/11/15 02:50:20;;;;;;;33.55;20.77;;;7.40;99.90;;;;;;4920814;28;20248;-57
2022/11/15 02:52:48;;;;;;;32.35;21.08;;;7.40;99.90;;;;;;4920561;28;20883;-57
2022/11/15 02:55:32;;;;;;;32.97;20.55;;;7.50;99.90;;;;;;4919701;28;20059;-57
2022/11/15 02:58:19;;;;;;;32.55;20.80;;;7.40;99.90;;;;;;4921599;28;20050;-57
2022/11/15 03:01:06;;;;;;;36.72;22.10;;;7.50;99.90;;;;;;4901451;28;20055;-57
2022/11/15 03:03:53;;;;;;;38.38;22.20;;;7.50;99.90;;;;;;4903848;28;20384;-56
2022/11/15 03:06:43;;;;;;;38.13;21.00;;;7.50;99.90;;;;;;4921679;28;20098;-57
2022/11/15 03:09:40;;;;;;;35.20;21.55;;;7.40;99.90;;;;;;4901088;28;20051;-57
2022/11/15 03:12:16;;;;;;;38.65;21.77;;;7.50;99.90;;;;;;4918154;28;20043;-57
2022/11/15 03:15:00;;;;;;;39.35;22.65;;;7.50;99.90;;;;;;4921355;28;20051;-57
2022/11/15 03:17:35;;;;;;;38.90;22.25;;;7.50;99.90;;;;;;4922542;28;20051;-57
2022/11/15 03:20:05;;;;;;;41.20;22.30;;;7.50;99.90;;;;;;4912843;29;20051;-56
2022/11/15 03:22:39;;;;;;;38.15;22.90;;;7.50;99.90;;;;;;4919593;28;20058;-57
2022/11/15 03:25:08;;;;;;;42.22;22.02;;;7.50;99.90;;;;;;4903849;29;20055;-57
2022/11/15 03:27:39;;;;;;;39.15;22.52;;;7.40;99.90;;;;;;4903860;29;20047;-58
2022/11/15 03:30:08;;;;;;;39.17;22.17;;;7.50;99.90;;;;;;4905064;29;20123;-56
2022/11/15 03:32:46;;;;;;;34.70;21.40;;;7.50;99.90;;;;;;4892085;29;20055;-56
2022/11/15 03:35:18;;;;;;;38.28;23.45;;;7.50;99.90;;;;;;4894642;29;20047;-58
2022/11/15 03:37:50;;;;;;;38.00;23.45;;;7.50;99.90;;;;;;4874307;29;20753;-57
2022/11/15 03:40:21;;;;;;;36.63;22.15;;;7.60;99.90;;;;;;4900182;29;20166;-57
2022/11/15 03:42:59;;;;;;;42.38;22.83;;;7.50;99.90;;;;;;4903419;29;20804;-57
2022/11/15 03:45:39;;;;;;;44.28;23.60;;;7.60;99.90;;;;;;4906367;29;20334;-57
2022/11/15 03:48:15;;;;;;;44.25;23.55;;;7.50;99.90;;;;;;4912153;29;20215;-56
2022/11/15 03:50:43;;;;;;;48.70;23.98;;;7.50;99.90;;;;;;4911144;29;20462;-58
2022/11/15 03:53:09;;;;;;;43.33;23.27;;;7.50;99.90;;;;;;4904917;29;20051;-56
2022/11/15 03:55:35;;;;;;;47.50;24.38;;;7.50;99.90;;;;;;4901502;29;20095;-57
2022/11/15 03:58:02;;;;;;;44.75;23.15;;;7.60;99.90;;;;;;4903250;29;20052;-55
2022/11/15 04:00:28;;;;;;;43.72;23.23;;;7.60;99.90;;;;;;4902988;29;20052;-55
2022/11/15 04:02:54;;;;;;;42.13;22.48;;;7.60;99.90;;;;;;4903252;29;20537;-55
2022/11/15 04:05:20;;;;;;;45.15;23.55;;;7.60;99.90;;;;;;4903211;29;20048;-57
2022/11/15 04:07:46;;;;;;;41.45;23.02;;;7.70;99.90;;;;;;4905506;29;20759;-58
2022/11/15 04:10:13;;;;;;;46.47;23.33;;;7.70;99.90;;;;;;4893569;29;20119;-58
2022/11/15 04:12:43;;;;;;;44.70;22.77;;;7.70;99.90;;;;;;4900867;29;20052;-57
2022/11/15 04:15:10;;;;;;;44.88;23.17;;;7.70;99.90;;;;;;4901253;29;20062;-57
2022/11/15 04:17:48;;;;;;;39.78;22.55;;;7.70;99.90;;;;;;4904053;29;20255;-57
2022/11/15 04:26:04;;;;;;;46.38;24.25;;;7.80;99.90;;;;;;4904085;29;20083;-57
2022/11/15 04:28:30;;;;;;;46.10;23.45;;;7.80;99.90;;;;;;4900527;29;20048;-57
2022/11/15 04:30:56;;;;;;;43.50;23.65;;;7.80;99.90;;;;;;4907057;29;20059;-55
2022/11/15 04:33:22;;;;;;;46.05;23.70;;;7.80;99.90;;;;;;4904767;29;20056;-56
2022/11/15 04:37:11;;;;;;;47.13;24.30;;;7.80;99.90;;;;;;4886566;29;20047;-56
2022/11/15 04:38:34;;;;;;;44.92;23.95;;;7.80;99.90;;;;;;4903498;29;20059;-57
2022/11/15 04:41:00;;;;;;;46.85;23.33;;;7.90;99.90;;;;;;4903206;29;20142;-57
2022/11/15 04:43:26;;;;;;;46.03;22.67;;;7.90;99.90;;;;;;4904837;29;20079;-57
2022/11/15 04:45:52;;;;;;;44.75;23.17;;;7.90;99.90;;;;;;4903497;29;20045;-58
2022/11/15 04:48:18;;;;;;;43.58;23.23;;;7.90;99.90;;;;;;4905170;29;21005;-57
2022/11/15 04:50:44;;;;;;;45.22;24.17;;;7.90;99.90;;;;;;4904151;29;20052;-57
2022/11/15 04:53:10;;;;;;;45.45;23.67;;;8.00;99.90;;;;;;4903886;29;20119;-56
2022/11/15 04:55:36;;;;;;;49.67;24.65;;;8.00;99.90;;;;;;4903166;29;20091;-57
2022/11/15 04:58:02;;;;;;;48.95;24.15;;;8.10;99.90;;;;;;4903424;29;20108;-58
2022/11/15 05:00:29;;;;;;;46.25;24.42;;;8.00;99.90;;;;;;4901663;29;20052;-56
2022/11/15 05:05:41;;;;;;;52.83;25.67;;;8.10;99.90;;;;;;4906047;29;20403;-57
2022/11/15 05:08:06;;;;;;;54.63;25.90;;;8.10;99.90;;;;;;4900779;29;20080;-57
2022/11/15 05:10:32;;;;;;;56.40;27.55;;;8.10;99.90;;;;;;4903193;29;20060;-56
2022/11/15 05:12:58;;;;;;;56.45;25.95;;;8.10;99.90;;;;;;4906989;29;20847;-57
2022/11/15 05:15:24;;;;;;;57.47;28.00;;;8.10;99.90;;;;;;4909590;29;20048;-57
2022/11/15 05:17:50;;;;;;;60.67;28.55;;;8.20;99.90;;;;;;4912415;29;20131;-57
2022/11/15 05:20:15;;;;;;;61.88;28.25;;;8.20;99.90;;;;;;4907414;29;20044;-57
2022/11/15 05:22:41;;;;;;;57.30;28.27;;;8.20;99.90;;;;;;4889195;29;20106;-56
2022/11/15 05:25:08;;;;;;;61.05;28.23;;;8.20;99.90;;;;;;4902459;29;20479;-56
2022/11/15 05:27:34;;;;;;;68.13;29.02;;;8.20;99.90;;;;;;4901745;29;20047;-56
2022/11/15 05:30:00;;;;;;;64.43;29.08;;;8.20;99.90;;;;;;4893852;29;20111;-56
2022/11/15 05:32:27;;;;;;;65.00;29.70;;;8.30;99.90;;;;;;4911068;29;20501;-58
2022/11/15 05:34:54;;;;;;;68.80;29.58;;;8.30;99.90;;;;;;4911280;29;20110;-57
2022/11/15 05:37:20;;;;;;;75.65;31.85;;;8.30;99.90;;;;;;4908365;29;20487;-57
2022/11/15 05:39:45;;;;;;;70.97;30.27;;;8.30;99.90;;;;;;4907732;29;20123;-57
2022/11/15 05:42:14;;;;;;;67.15;31.48;;;8.30;99.90;;;;;;4887225;29;20195;-58
2022/11/15 05:44:42;;;;;;;71.85;32.03;;;8.40;99.90;;;;;;4905564;29;20047;-56
2022/11/15 05:47:12;;;;;;;86.75;33.38;;;8.40;99.90;;;;;;4906992;29;20422;-56
2022/11/15 05:49:41;;;;;;;81.53;34.15;;;8.40;99.90;;;;;;4907605;29;20048;-57
2022/11/15 05:52:09;;;;;;;85.32;33.45;;;8.40;99.90;;;;;;4905232;29;20055;-56
2022/11/15 05:54:36;;;;;;;88.22;35.17;;;8.40;99.90;;;;;;4904941;29;21879;-57
2022/11/15 05:57:03;;;;;;;80.60;33.53;;;8.40;99.90;;;;;;4903064;29;20235;-57
2022/11/15 05:59:30;;;;;;;81.88;34.30;;;8.50;99.90;;;;;;4902975;29;20059;-58
2022/11/15 06:01:56;;;;;;;86.25;34.78;;;8.50;99.90;;;;;;4890954;29;20047;-57
2022/11/15 06:04:22;;;;;;;86.68;34.47;;;8.50;99.90;;;;;;4904685;29;20052;-57
2022/11/15 06:06:48;;;;;;;87.50;36.30;;;8.50;99.90;;;;;;4904766;29;20174;-57
2022/11/15 06:09:14;;;;;;;99.65;38.22;;;8.60;99.90;;;;;;4904147;29;20062;-58
2022/11/15 06:11:39;;;;;;;103.40;37.42;;;8.60;99.90;;;;;;4904080;29;20056;-57
2022/11/15 06:14:05;;;;;;;88.28;35.50;;;8.60;99.90;;;;;;4903848;29;20414;-58
2022/11/15 06:16:31;;;;;;;102.70;39.65;;;8.60;99.90;;;;;;4903740;29;20044;-57
2022/11/15 06:18:57;;;;;;;91.93;36.55;;;8.60;99.90;;;;;;4877915;29;20044;-57
2022/11/15 06:21:23;;;;;;;98.93;37.88;;;8.70;99.90;;;;;;4902516;29;20144;-58
2022/11/15 06:23:49;;;;;;;94.68;38.13;;;8.70;99.90;;;;;;4907279;28;20143;-57
2022/11/15 06:26:14;;;;;;;102.53;38.35;;;8.70;99.90;;;;;;4905046;29;20059;-57
2022/11/15 06:28:40;;;;;;;109.03;39.38;;;8.80;99.90;;;;;;4904776;29;20794;-57
2022/11/15 06:31:10;;;;;;;114.80;39.85;;;8.80;99.90;;;;;;4902528;29;20070;-57
2022/11/15 06:33:37;;;;;;;99.93;39.58;;;8.80;99.90;;;;;;4903527;29;20078;-56
2022/11/15 06:36:04;;;;;;;112.93;40.55;;;8.80;99.90;;;;;;4901864;29;20122;-56
2022/11/15 06:38:30;;;;;;;107.25;39.80;;;8.90;99.90;;;;;;4902193;29;20044;-57
2022/11/15 06:41:05;;;;;;;114.25;40.72;;;8.90;99.90;;;;;;4898311;29;20098;-57
2022/11/15 06:43:31;;;;;;;107.13;40.50;;;8.90;99.90;;;;;;4900666;29;20527;-56
2022/11/15 06:46:01;;;;;;;104.22;40.40;;;9.00;99.90;;;;;;4889376;29;20134;-58
2022/11/15 06:48:28;;;;;;;108.85;40.33;;;9.00;99.90;;;;;;4907202;29;20086;-58
2022/11/15 06:50:57;;;;;;;109.90;42.13;;;9.10;99.90;;;;;;4899767;29;20090;-57
2022/11/15 06:53:23;;;;;;;98.95;40.83;;;9.10;99.90;;;;;;4898584;29;20048;-57
2022/11/15 06:55:49;;;;;;;107.35;40.83;;;9.10;99.90;;;;;;4891971;29;20052;-57
2022/11/15 06:58:15;;;;;;;115.72;42.67;;;9.10;99.90;;;;;;4904984;29;20063;-57
2022/11/15 07:00:41;;;;;;;109.22;42.20;;;9.20;99.90;;;;;;4896676;29;20185;-57
2022/11/15 07:03:08;;;;;;;106.15;41.35;;;9.20;99.90;;;;;;4910266;29;20051;-57
2022/11/15 07:05:34;;;;;;;107.07;41.92;;;9.20;99.90;;;;;;4907589;29;20052;-55
2022/11/15 07:08:00;;;;;;;97.70;41.10;;;9.20;99.90;;;;;;4900422;29;20099;-58
2022/11/15 07:10:27;;;;;;;110.95;42.15;;;9.30;99.90;;;;;;4898433;29;20051;-49
2022/11/15 07:12:53;;;;;;;105.53;40.08;;;9.30;99.90;;;;;;4905054;29;20059;-51
2022/11/15 07:15:21;;;;;;;105.00;41.75;;;9.40;99.90;;;;;;4908069;29;21446;-52
2022/11/15 07:17:46;;;;;;;101.03;40.50;;;9.40;99.90;;;;;;4909956;29;20059;-51
2022/11/15 07:20:13;;;;;;;103.40;40.85;;;9.40;99.90;;;;;;4911063;29;20613;-46
2022/11/15 07:22:40;;;;;;;100.40;40.72;;;9.40;99.90;;;;;;4911872;29;20223;-47
2022/11/15 07:25:06;;;;;;;99.10;40.28;;;9.50;99.90;;;;;;4910960;29;20082;-49
2022/11/15 07:27:32;;;;;;;103.75;40.72;;;9.50;99.90;;;;;;4912507;29;20063;-50
2022/11/15 07:29:58;;;;;;;105.90;40.63;;;9.50;99.90;;;;;;4911242;29;20051;-49
2022/11/15 07:32:24;;;;;;;108.97;39.28;;;9.60;99.90;;;;;;4912374;29;20044;-49
2022/11/15 07:34:49;;;;;;;105.10;40.83;;;9.60;99.90;;;;;;4907662;29;20047;-49
2022/11/15 07:37:16;;;;;;;97.80;38.67;;;9.70;99.90;;;;;;4913752;29;20428;-49
2022/11/15 07:39:43;;;;;;;91.00;38.47;;;9.70;99.90;;;;;;4909870;29;20052;-51
2022/11/15 07:44:53;;;;;;;100.07;40.03;;;9.70;99.90;;;;;;4912504;29;20083;-48
2022/11/15 07:47:20;;;;;;;86.00;37.22;;;9.70;99.90;;;;;;4912280;29;20123;-47
2022/11/15 07:49:46;;;;;;;92.50;39.50;;;9.80;99.90;;;;;;4911675;29;20471;-47
2022/11/15 07:52:12;;;;;;;81.50;36.90;;;9.80;99.90;;;;;;4911485;29;20167;-50
2022/11/15 07:54:38;;;;;;;81.90;36.72;;;9.80;99.90;;;;;;4911784;29;20131;-50
2022/11/15 07:57:05;;;;;;;82.30;37.10;;;9.80;99.90;;;;;;4909368;29;20044;-48
2022/11/15 07:59:31;;;;;;;86.47;37.15;;;9.80;99.90;;;;;;4908721;29;20238;-51
2022/11/15 08:01:57;;;;;;;81.30;37.08;;;9.90;99.90;;;;;;4903741;29;20048;-48
2022/11/15 08:04:23;;;;;;;81.68;36.45;;;9.90;99.90;;;;;;4914832;29;20380;-48
2022/11/15 08:06:48;;;;;;;76.88;35.05;;;10.00;99.90;;;;;;4917449;29;20048;-46
2022/11/15 08:09:14;;;;;;;80.15;35.78;;;10.00;99.90;;;;;;4913087;29;20479;-48
2022/11/15 08:11:40;;;;;;;79.05;33.88;;;10.00;99.90;;;;;;4916948;29;20056;-48
2022/11/15 08:14:06;;;;;;;78.13;35.78;;;10.10;99.90;;;;;;4917036;29;20059;-50
2022/11/15 08:16:32;;;;;;;70.30;34.67;;;10.10;99.90;;;;;;4899206;29;20096;-48
2022/11/15 08:18:58;;;;;;;64.63;34.00;;;10.10;99.90;;;;;;4901319;29;20103;-47
2022/11/15 08:21:24;;;;;;;73.32;33.15;;;10.20;99.90;;;;;;4917136;29;20160;-46
2022/11/15 08:23:49;;;;;;;62.40;31.23;;;10.10;99.90;;;;;;4900451;29;20545;-49
2022/11/15 08:26:16;;;;;;;67.88;32.63;;;10.20;99.90;;;;;;4916442;29;20052;-49
2022/11/15 08:28:42;;;;;;;64.45;32.83;;;10.20;99.90;;;;;;4901221;29;20047;-49
2022/11/15 08:31:14;;;;;;;60.70;30.45;;;10.20;99.90;;;;;;4916412;29;20135;-46
2022/11/15 08:33:40;;;;;;;62.83;30.67;;;10.30;99.90;;;;;;4915535;29;20060;-48
2022/11/15 08:36:06;;;;;;;57.30;31.63;;;10.30;99.90;;;;;;4917785;29;20051;-48
2022/11/15 08:38:32;;;;;;;61.20;31.02;;;10.40;99.90;;;;;;4914964;29;20055;-48
2022/11/15 08:41:03;;;;;;;59.75;30.95;;;10.40;99.90;;;;;;4900343;29;20478;-47
2022/11/15 08:43:30;;;;;;;57.40;29.95;;;10.50;99.90;;;;;;4915881;29;20055;-49
2022/11/15 08:45:56;;;;;;;51.15;29.02;;;10.50;99.90;;;;;;4915725;29;20411;-47
2022/11/15 08:48:22;;;;;;;47.00;28.77;;;10.50;99.90;;;;;;4917437;29;20079;-51
2022/11/15 08:50:48;;;;;;;51.83;28.48;;;10.60;99.90;;;;;;4903053;29;20178;-48
2022/11/15 08:53:14;;;;;;;48.78;28.95;;;10.60;99.90;;;;;;4910958;29;20056;-48
2022/11/15 08:55:40;;;;;;;51.97;28.80;;;10.60;99.90;;;;;;4916683;29;20142;-49
2022/11/15 08:58:07;;;;;;;49.92;28.35;;;10.60;99.90;;;;;;4915925;29;20043;-51
2022/11/15 09:00:33;;;;;;;49.63;27.85;;;10.60;99.90;;;;;;4917671;29;20132;-49
2022/11/15 09:02:59;;;;;;;49.85;26.73;;;10.70;99.90;;;;;;4917115;29;20048;-48
2022/11/15 09:05:26;;;;;;;50.95;27.25;;;10.70;99.90;;;;;;4914803;29;20580;-51
2022/11/15 09:07:55;;;;;;;46.00;26.48;;;10.80;99.90;;;;;;4916991;29;20092;-51
2022/11/15 09:10:21;;;;;;;49.90;27.50;;;10.80;99.90;;;;;;4917682;29;20131;-50
2022/11/15 09:12:48;;;;;;;46.63;25.88;;;10.80;99.90;;;;;;4917199;29;20052;-51
2022/11/15 09:15:15;;;;;;;42.13;25.45;;;10.80;99.90;;;;;;4914310;29;20052;-50
2022/11/15 09:17:41;;;;;;;44.92;22.85;;;10.90;99.90;;;;;;4914995;29;20059;-51
2022/11/15 09:20:08;;;;;;;38.03;23.27;;;11.00;99.90;;;;;;4913780;29;20056;-50
2022/11/15 09:22:34;;;;;;;41.40;23.70;;;11.00;99.90;;;;;;4913239;29;20082;-48
2022/11/15 09:25:00;;;;;;;39.50;24.50;;;11.10;99.90;;;;;;4913928;29;20056;-52
2022/11/15 09:27:30;;;;;;;42.20;23.05;;;11.10;99.90;;;;;;4913568;29;20045;-48
2022/11/15 09:29:56;;;;;;;37.65;22.27;;;11.20;99.90;;;;;;4913911;29;20047;-49
2022/11/15 09:32:23;;;;;;;36.40;21.52;;;11.20;99.90;;;;;;4914130;29;20388;-49
2022/11/15 09:34:49;;;;;;;37.08;22.25;;;11.20;99.90;;;;;;4913060;29;20130;-46
2022/11/15 09:37:16;;;;;;;33.67;20.98;;;11.20;99.90;;;;;;4915206;29;20431;-50
2022/11/15 09:39:41;;;;;;;35.53;22.00;;;11.30;99.90;;;;;;4914682;29;20058;-49
2022/11/15 09:42:46;;;;;;;34.58;20.85;;;11.30;99.90;;;;;;4912864;29;20447;-52
2022/11/15 09:45:31;;;;;;;37.58;21.27;;;11.30;99.90;;;;;;4868006;29;20060;-51
2022/11/15 09:48:12;;;;;;;31.70;20.55;;;11.30;99.90;;;;;;4867962;29;20053;-49
2022/11/15 09:50:46;;;;;;;32.72;19.67;;;11.30;99.90;;;;;;4900933;29;20112;-49
2022/11/15 09:53:19;;;;;;;32.45;20.50;;;11.30;99.90;;;;;;4912570;29;20052;-49
2022/11/15 09:55:59;;;;;;;30.27;19.73;;;11.40;99.90;;;;;;4912261;29;20066;-48
2022/11/15 09:58:56;;;;;;;31.88;20.02;;;11.40;99.90;;;;;;4912816;29;20094;-48
2022/11/15 10:01:54;;;;;;;30.13;19.58;;;11.40;99.90;;;;;;4914028;29;20055;-51
2022/11/15 10:04:22;;;;;;;31.00;20.08;;;11.50;99.90;;;;;;4897787;29;20401;-47
2022/11/15 10:07:02;;;;;;;33.88;19.52;;;11.50;99.90;;;;;;4914677;29;20052;-49
2022/11/15 10:10:07;;;;;;;30.10;19.05;;;11.50;99.90;;;;;;4910398;29;20052;-50
2022/11/15 10:12:33;;;;;;;29.45;18.98;;;11.50;99.90;;;;;;4899857;29;20060;-52
2022/11/15 10:15:06;;;;;;;27.63;18.23;;;11.50;99.90;;;;;;4912365;29;20146;-51
2022/11/15 10:17:51;;;;;;;32.05;18.65;;;11.50;99.90;;;;;;4913260;29;20510;-48
2022/11/15 10:20:27;;;;;;;28.83;18.27;;;11.50;99.90;;;;;;4912183;29;20503;-51
2022/11/15 10:23:00;;;;;;;26.67;18.13;;;11.50;99.90;;;;;;4912550;29;20040;-47
2022/11/15 10:25:30;;;;;;;28.13;19.27;;;11.60;99.90;;;;;;4912099;29;20091;-50
2022/11/15 10:28:04;;;;;;;28.30;18.27;;;11.60;99.90;;;;;;4912388;29;20483;-50
2022/11/15 10:30:39;;;;;;;23.88;17.25;;;11.60;99.90;;;;;;4911335;29;20051;-48
2022/11/15 10:33:22;;;;;;;30.42;17.58;;;11.70;99.90;;;;;;4912421;29;20071;-50
2022/11/15 10:35:48;;;;;;;25.27;18.00;;;11.70;99.90;;;;;;4912628;29;20114;-52
2022/11/15 10:38:14;;;;;;;32.28;17.77;;;11.80;99.90;;;;;;4910401;29;20047;-50
2022/11/15 10:40:40;;;;;;;23.90;17.20;;;11.70;99.90;;;;;;4912681;29;20119;-49
2022/11/15 10:43:16;;;;;;;29.20;17.55;;;11.80;99.90;;;;;;4904465;29;20056;-46
2022/11/15 10:45:42;;;;;;;29.08;17.48;;;11.80;99.90;;;;;;4912550;29;20059;-49
2022/11/15 10:48:14;;;;;;;28.25;17.95;;;11.80;99.90;;;;;;4912058;29;20535;-47
2022/11/15 10:50:47;;;;;;;31.00;17.70;;;11.90;99.90;;;;;;4911286;29;20056;-50
2022/11/15 10:53:33;;;;;;;26.55;16.55;;;11.90;99.90;;;;;;4911072;29;20089;-47
2022/11/15 10:56:06;;;;;;;28.45;17.35;;;11.90;99.90;;;;;;4912121;29;20127;-50
2022/11/15 10:58:42;;;;;;;28.83;16.95;;;11.90;99.90;;;;;;4911468;29;20047;-48
2022/11/15 11:01:41;;;;;;;26.58;16.25;;;11.90;99.90;;;;;;4912597;29;20071;-51
2022/11/15 11:04:09;;;;;;;25.85;15.55;;;11.90;99.90;;;;;;4879504;29;20068;-49
2022/11/15 11:06:51;;;;;;;25.30;16.25;;;11.90;99.90;;;;;;4910869;29;20052;-49
2022/11/15 11:09:33;;;;;;;24.05;15.88;;;12.00;99.90;;;;;;4912636;29;20044;-50
2022/11/15 11:12:00;;;;;;;24.05;15.30;;;12.00;99.90;;;;;;4911410;29;20541;-49
2022/11/15 11:14:34;;;;;;;25.52;16.33;;;12.10;99.90;;;;;;4911480;29;20114;-53
2022/11/15 11:17:11;;;;;;;24.17;16.23;;;12.10;99.90;;;;;;4913461;29;20052;-49
2022/11/15 11:20:01;;;;;;;23.45;16.15;;;12.10;99.90;;;;;;4911860;29;20035;-52
2022/11/15 11:23:07;;;;;;;22.88;15.73;;;12.10;99.90;;;;;;4910020;29;20512;-48
2022/11/15 11:25:39;;;;;;;24.10;15.73;;;12.10;99.90;;;;;;4899132;29;20060;-48
2022/11/15 11:28:26;;;;;;;25.75;15.98;;;12.20;99.90;;;;;;4913428;29;20052;-49
2022/11/15 11:31:00;;;;;;;21.60;15.27;;;12.30;99.90;;;;;;4912173;29;20459;-48
2022/11/15 11:33:33;;;;;;;22.63;14.77;;;12.30;99.90;;;;;;4908689;29;20055;-50
2022/11/15 11:36:09;;;;;;;19.48;13.38;;;12.40;99.90;;;;;;4902989;29;20088;-50
2022/11/15 11:38:54;;;;;;;23.50;14.40;;;12.40;99.90;;;;;;4907570;29;20075;-47
2022/11/15 11:42:09;;;;;;;21.67;13.98;;;12.40;99.90;;;;;;4910603;29;20506;-53
2022/11/15 11:44:51;;;;;;;24.35;12.75;;;12.50;99.90;;;;;;4853186;29;20057;-53
2022/11/15 11:47:29;;;;;;;24.40;15.47;;;12.50;99.90;;;;;;4912273;29;20078;-53
2022/11/15 11:50:25;;;;;;;20.40;13.80;;;12.60;99.90;;;;;;4910554;29;20439;-52
2022/11/15 11:53:11;;;;;;;19.95;14.18;;;12.70;99.90;;;;;;4910852;29;20052;-55
2022/11/15 11:56:04;;;;;;;19.65;13.45;;;12.80;99.90;;;;;;4910803;29;20056;-52
2022/11/15 11:58:34;;;;;;;;;;;12.90;99.90;;;;;;4912112;29;20086;-52
2022/11/15 12:01:24;;;;;;;21.08;13.45;;;12.80;99.90;;;;;;4907572;29;19927;-54
2022/11/15 12:04:03;;;;;;;19.17;13.48;;;12.90;99.90;;;;;;4911477;29;20163;-50
2022/11/15 12:06:54;;;;;;;19.38;13.30;;;12.90;99.90;;;;;;4912460;29;20056;-51
2022/11/15 12:09:38;;;;;;;14.13;11.23;;;12.90;99.90;;;;;;4904276;29;20044;-52
2022/11/15 12:12:18;;;;;;;16.90;11.77;;;12.90;99.90;;;;;;4909268;29;20059;-54
2022/11/15 12:15:16;;;;;;;17.60;11.50;;;12.80;99.90;;;;;;4910809;29;20044;-51
2022/11/15 12:17:43;;;;;;;16.92;11.27;;;12.80;99.90;;;;;;4895534;29;20171;-54
2022/11/15 12:20:20;;;;;;;14.32;11.23;;;12.90;99.90;;;;;;4909592;29;20056;-52
2022/11/15 12:23:05;;;;;;;16.83;10.10;;;13.00;99.90;;;;;;4907521;29;20150;-51
2022/11/15 12:25:57;;;;;;;13.70;8.57;;;13.10;99.90;;;;;;4910712;29;20411;-54
2022/11/15 12:28:34;;;;;;;12.65;7.47;;;13.00;99.90;;;;;;4865000;29;20466;-51
2022/11/15 12:31:27;;;;;;;7.78;5.60;;;13.20;99.90;;;;;;4906837;29;20047;-53
2022/11/15 12:33:57;;;;;;;10.45;4.72;;;13.30;99.90;;;;;;4899234;29;20056;-54
2022/11/15 12:36:22;;;;;;;6.93;4.60;;;13.20;99.90;;;;;;4910464;29;20055;-54
2022/11/15 12:39:06;;;;;;;8.90;4.18;;;13.20;99.90;;;;;;4909409;29;20529;-51
2022/11/15 12:41:34;;;;;;;6.22;3.40;;;13.10;99.90;;;;;;4909239;29;20590;-52
2022/11/15 12:44:00;;;;;;;12.07;3.20;;;13.10;99.90;;;;;;4907230;29;20047;-55
2022/11/15 12:46:29;;;;;;;8.00;2.90;;;13.10;99.90;;;;;;4909019;29;20055;-52
2022/11/15 12:49:01;;;;;;;8.35;2.97;;;13.10;99.90;;;;;;4910538;29;20108;-55
2022/11/15 12:51:42;;;;;;;6.88;2.85;;;13.10;99.90;;;;;;4912538;29;20443;-53
2022/11/15 12:54:23;;;;;;;6.35;2.97;;;13.00;99.90;;;;;;4913790;29;20044;-54
2022/11/15 12:57:06;;;;;;;5.85;2.90;;;13.00;99.90;;;;;;4910858;29;20052;-52
2022/11/15 12:59:51;;;;;;;;;;;13.00;99.90;;;;;;4905804;29;20056;-54
2022/11/15 13:02:18;;;;;;;6.00;2.40;;;13.00;99.90;;;;;;4911195;29;19930;-54
2022/11/15 13:04:44;;;;;;;7.80;2.97;;;13.00;99.90;;;;;;4913619;29;20058;-54
2022/11/15 13:07:32;;;;;;;5.57;2.50;;;13.00;99.90;;;;;;4893989;29;20069;-51